Burgaw, North Carolina
Current Conditions -  °F | °C
As of 6:53 PM on Monday 22 Dec 2014 (Local Time) from KILM Reporting Station
Overcast Overcast  
Wind Chill: 44°   Ceiling: 500
Heat Index: 46°   Visibility: 8mi
Dew Point: 45°   Wind: 5mph
Humidity: 96%   Direction: 360°N
Pressure: 30.02"   Gusts: NA
Location:  34.55°N, 77.93°W
Report Text: KILM 222353Z 36004KT 8SM OVC005 08/07 A3002 RMK AO2 RAE30 SLP164 P0002 60004 T00780072 10083 20078 53007
Loading
Personal Weather Stations






























Interactive Weather Map New forecast layout! Learn more

10-Day Weather Forecast

Advertisements
Track Severe Weather on mobile